sensor_id;sensor_type;location;lat;lon;timestamp;P1;durP1;ratioP1;P2;durP2;ratioP2
17937;SDS011;16051;53.024;8.630;2022-09-30T00:03:25;3.20;;;2.80;;
17937;SDS011;16051;53.024;8.630;2022-09-30T00:07:28;3.90;;;3.60;;
17937;SDS011;16051;53.024;8.630;2022-09-30T00:11:32;3.50;;;3.10;;
17937;SDS011;16051;53.024;8.630;2022-09-30T00:15:38;3.70;;;3.37;;
17937;SDS011;16051;53.024;8.630;2022-09-30T00:19:40;3.50;;;3.20;;
17937;SDS011;16051;53.024;8.630;2022-09-30T00:23:51;4.20;;;3.80;;
17937;SDS011;16051;53.024;8.630;2022-09-30T00:27:55;3.90;;;3.60;;
17937;SDS011;16051;53.024;8.630;2022-09-30T00:31:57;3.40;;;3.10;;
17937;SDS011;16051;53.024;8.630;2022-09-30T00:36:00;6.20;;;4.30;;
17937;SDS011;16051;53.024;8.630;2022-09-30T00:40:03;3.90;;;3.60;;
17937;SDS011;16051;53.024;8.630;2022-09-30T00:53:05;5.33;;;4.13;;
17937;SDS011;16051;53.024;8.630;2022-09-30T00:57:16;4.33;;;3.93;;
17937;SDS011;16051;53.024;8.630;2022-09-30T01:01:19;3.87;;;3.50;;
17937;SDS011;16051;53.024;8.630;2022-09-30T01:05:24;3.73;;;3.43;;
17937;SDS011;16051;53.024;8.630;2022-09-30T01:09:26;5.47;;;4.63;;
17937;SDS011;16051;53.024;8.630;2022-09-30T01:18:04;4.93;;;4.43;;
17937;SDS011;16051;53.024;8.630;2022-09-30T01:22:19;5.07;;;4.63;;
17937;SDS011;16051;53.024;8.630;2022-09-30T01:26:40;4.80;;;4.40;;
17937;SDS011;16051;53.024;8.630;2022-09-30T01:31:09;4.27;;;3.87;;
17937;SDS011;16051;53.024;8.630;2022-09-30T01:35:28;4.10;;;3.80;;
17937;SDS011;16051;53.024;8.630;2022-09-30T01:39:49;5.13;;;4.63;;
17937;SDS011;16051;53.024;8.630;2022-09-30T01:44:03;5.60;;;5.10;;
17937;SDS011;16051;53.024;8.630;2022-09-30T01:48:19;5.03;;;4.63;;
17937;SDS011;16051;53.024;8.630;2022-09-30T01:52:31;6.00;;;4.73;;
17937;SDS011;16051;53.024;8.630;2022-09-30T01:56:41;5.10;;;4.37;;
17937;SDS011;16051;53.024;8.630;2022-09-30T02:00:49;5.40;;;4.90;;
17937;SDS011;16051;53.024;8.630;2022-09-30T02:05:18;5.57;;;5.07;;
17937;SDS011;16051;53.024;8.630;2022-09-30T02:09:26;5.30;;;4.90;;
17937;SDS011;16051;53.024;8.630;2022-09-30T02:13:38;5.23;;;4.73;;
17937;SDS011;16051;53.024;8.630;2022-09-30T02:17:46;5.87;;;5.37;;
17937;SDS011;16051;53.024;8.630;2022-09-30T02:21:54;6.37;;;5.10;;
17937;SDS011;16051;53.024;8.630;2022-09-30T02:26:02;5.57;;;4.97;;
17937;SDS011;16051;53.024;8.630;2022-09-30T02:34:44;5.73;;;5.10;;
17937;SDS011;16051;53.024;8.630;2022-09-30T02:38:55;4.70;;;4.33;;
17937;SDS011;16051;53.024;8.630;2022-09-30T02:43:02;4.83;;;4.43;;
17937;SDS011;16051;53.024;8.630;2022-09-30T02:47:09;6.07;;;5.47;;
17937;SDS011;16051;53.024;8.630;2022-09-30T02:51:18;5.13;;;4.73;;
17937;SDS011;16051;53.024;8.630;2022-09-30T02:55:46;5.60;;;5.07;;
17937;SDS011;16051;53.024;8.630;2022-09-30T03:00:11;5.30;;;4.57;;
17937;SDS011;16051;53.024;8.630;2022-09-30T03:04:14;6.10;;;5.50;;
17937;SDS011;16051;53.024;8.630;2022-09-30T03:08:21;5.37;;;4.87;;
17937;SDS011;16051;53.024;8.630;2022-09-30T03:12:28;5.03;;;4.60;;
17937;SDS011;16051;53.024;8.630;2022-09-30T03:17:04;6.47;;;5.77;;
17937;SDS011;16051;53.024;8.630;2022-09-30T03:21:41;6.40;;;5.30;;
17937;SDS011;16051;53.024;8.630;2022-09-30T03:26:03;5.67;;;5.17;;
17937;SDS011;16051;53.024;8.630;2022-09-30T03:30:20;5.30;;;4.80;;
17937;SDS011;16051;53.024;8.630;2022-09-30T03:34:27;6.00;;;5.40;;
17937;SDS011;16051;53.024;8.630;2022-09-30T03:38:38;5.03;;;4.63;;
17937;SDS011;16051;53.024;8.630;2022-09-30T03:42:54;5.50;;;5.00;;
17937;SDS011;16051;53.024;8.630;2022-09-30T03:47:06;5.30;;;4.80;;
17937;SDS011;16051;53.024;8.630;2022-09-30T03:51:12;5.43;;;4.93;;
17937;SDS011;16051;53.024;8.630;2022-09-30T03:55:17;5.77;;;5.20;;
17937;SDS011;16051;53.024;8.630;2022-09-30T03:59:22;6.13;;;5.50;;
17937;SDS011;16051;53.024;8.630;2022-09-30T04:03:28;6.00;;;5.40;;
17937;SDS011;16051;53.024;8.630;2022-09-30T04:11:55;7.10;;;5.60;;
17937;SDS011;16051;53.024;8.630;2022-09-30T04:15:57;6.20;;;5.60;;
17937;SDS011;16051;53.024;8.630;2022-09-30T04:20:00;6.43;;;5.83;;
17937;SDS011;16051;53.024;8.630;2022-09-30T04:24:03;10.00;;;6.50;;
17937;SDS011;16051;53.024;8.630;2022-09-30T04:28:05;6.17;;;5.60;;
17937;SDS011;16051;53.024;8.630;2022-09-30T04:32:07;6.83;;;6.13;;
17937;SDS011;16051;53.024;8.630;2022-09-30T04:36:11;5.80;;;5.20;;
17937;SDS011;16051;53.024;8.630;2022-09-30T04:40:14;6.30;;;5.60;;
17937;SDS011;16051;53.024;8.630;2022-09-30T04:44:17;6.90;;;6.27;;
17937;SDS011;16051;53.024;8.630;2022-09-30T04:48:19;7.60;;;6.00;;
17937;SDS011;16051;53.024;8.630;2022-09-30T04:52:23;7.20;;;6.50;;
17937;SDS011;16051;53.024;8.630;2022-09-30T04:56:37;7.50;;;6.70;;
17937;SDS011;16051;53.024;8.630;2022-09-30T05:00:39;6.97;;;6.27;;
17937;SDS011;16051;53.024;8.630;2022-09-30T05:04:41;6.70;;;6.07;;
17937;SDS011;16051;53.024;8.630;2022-09-30T05:08:45;6.53;;;5.47;;
17937;SDS011;16051;53.024;8.630;2022-09-30T05:12:47;8.07;;;6.67;;
17937;SDS011;16051;53.024;8.630;2022-09-30T05:16:53;7.50;;;6.60;;
17937;SDS011;16051;53.024;8.630;2022-09-30T05:21:05;7.63;;;6.87;;
17937;SDS011;16051;53.024;8.630;2022-09-30T05:25:09;7.67;;;6.70;;
17937;SDS011;16051;53.024;8.630;2022-09-30T05:29:12;8.20;;;7.40;;
17937;SDS011;16051;53.024;8.630;2022-09-30T05:33:14;8.97;;;8.07;;
17937;SDS011;16051;53.024;8.630;2022-09-30T05:37:16;9.60;;;8.70;;
17937;SDS011;16051;53.024;8.630;2022-09-30T05:41:27;9.70;;;8.17;;
17937;SDS011;16051;53.024;8.630;2022-09-30T05:45:30;9.67;;;8.27;;
17937;SDS011;16051;53.024;8.630;2022-09-30T05:49:47;9.37;;;8.37;;
17937;SDS011;16051;53.024;8.630;2022-09-30T05:53:49;10.47;;;9.40;;
17937;SDS011;16051;53.024;8.630;2022-09-30T05:57:53;11.10;;;9.80;;
17937;SDS011;16051;53.024;8.630;2022-09-30T06:01:55;11.57;;;9.57;;
17937;SDS011;16051;53.024;8.630;2022-09-30T06:05:57;10.23;;;8.87;;
17937;SDS011;16051;53.024;8.630;2022-09-30T06:10:00;8.83;;;7.67;;
17937;SDS011;16051;53.024;8.630;2022-09-30T06:14:04;9.80;;;8.80;;
17937;SDS011;16051;53.024;8.630;2022-09-30T06:18:07;10.77;;;9.30;;
17937;SDS011;16051;53.024;8.630;2022-09-30T06:22:23;11.60;;;9.43;;
17937;SDS011;16051;53.024;8.630;2022-09-30T06:26:26;11.13;;;9.30;;
17937;SDS011;16051;53.024;8.630;2022-09-30T06:30:29;10.40;;;9.40;;
17937;SDS011;16051;53.024;8.630;2022-09-30T06:34:32;11.70;;;10.07;;
17937;SDS011;16051;53.024;8.630;2022-09-30T06:38:35;11.70;;;10.47;;
17937;SDS011;16051;53.024;8.630;2022-09-30T06:42:38;13.53;;;10.83;;
17937;SDS011;16051;53.024;8.630;2022-09-30T06:46:42;12.90;;;11.50;;
17937;SDS011;16051;53.024;8.630;2022-09-30T06:50:44;14.00;;;12.60;;
17937;SDS011;16051;53.024;8.630;2022-09-30T06:55:02;13.60;;;12.20;;
17937;SDS011;16051;53.024;8.630;2022-09-30T07:03:44;12.80;;;11.30;;
17937;SDS011;16051;53.024;8.630;2022-09-30T07:08:03;12.47;;;11.17;;
17937;SDS011;16051;53.024;8.630;2022-09-30T07:12:17;14.43;;;12.23;;
17937;SDS011;16051;53.024;8.630;2022-09-30T07:20:40;14.93;;;13.43;;
17937;SDS011;16051;53.024;8.630;2022-09-30T07:24:48;14.00;;;11.93;;
17937;SDS011;16051;53.024;8.630;2022-09-30T07:28:50;14.33;;;12.77;;
17937;SDS011;16051;53.024;8.630;2022-09-30T07:37:01;16.00;;;12.97;;
17937;SDS011;16051;53.024;8.630;2022-09-30T07:41:05;16.07;;;13.27;;
17937;SDS011;16051;53.024;8.630;2022-09-30T07:45:10;14.90;;;13.40;;
17937;SDS011;16051;53.024;8.630;2022-09-30T07:49:19;15.23;;;12.77;;
17937;SDS011;16051;53.024;8.630;2022-09-30T07:53:25;16.73;;;13.37;;
17937;SDS011;16051;53.024;8.630;2022-09-30T07:57:28;15.87;;;13.37;;
17937;SDS011;16051;53.024;8.630;2022-09-30T08:01:30;17.10;;;13.40;;
17937;SDS011;16051;53.024;8.630;2022-09-30T08:05:40;13.80;;;12.40;;
17937;SDS011;16051;53.024;8.630;2022-09-30T08:09:45;15.70;;;13.83;;
17937;SDS011;16051;53.024;8.630;2022-09-30T08:13:49;15.23;;;13.63;;
17937;SDS011;16051;53.024;8.630;2022-09-30T08:22:06;17.63;;;14.13;;
17937;SDS011;16051;53.024;8.630;2022-09-30T08:26:11;18.10;;;14.43;;
17937;SDS011;16051;53.024;8.630;2022-09-30T08:30:14;15.20;;;13.57;;
17937;SDS011;16051;53.024;8.630;2022-09-30T08:34:17;18.00;;;15.17;;
17937;SDS011;16051;53.024;8.630;2022-09-30T08:38:19;17.50;;;14.87;;
17937;SDS011;16051;53.024;8.630;2022-09-30T08:42:26;17.63;;;14.50;;
17937;SDS011;16051;53.024;8.630;2022-09-30T08:46:47;17.70;;;14.53;;
17937;SDS011;16051;53.024;8.630;2022-09-30T08:51:03;18.17;;;15.93;;
17937;SDS011;16051;53.024;8.630;2022-09-30T08:55:25;16.70;;;14.90;;
17937;SDS011;16051;53.024;8.630;2022-09-30T08:59:37;18.50;;;15.27;;
17937;SDS011;16051;53.024;8.630;2022-09-30T09:03:46;18.40;;;14.13;;
17937;SDS011;16051;53.024;8.630;2022-09-30T09:07:51;15.00;;;13.30;;
17937;SDS011;16051;53.024;8.630;2022-09-30T09:12:12;16.07;;;14.37;;
17937;SDS011;16051;53.024;8.630;2022-09-30T09:16:30;15.67;;;13.97;;
17937;SDS011;16051;53.024;8.630;2022-09-30T09:20:49;15.70;;;14.07;;
17937;SDS011;16051;53.024;8.630;2022-09-30T09:24:56;17.40;;;14.13;;
17937;SDS011;16051;53.024;8.630;2022-09-30T09:29:05;14.90;;;13.30;;
17937;SDS011;16051;53.024;8.630;2022-09-30T09:33:25;15.13;;;13.53;;
17937;SDS011;16051;53.024;8.630;2022-09-30T09:37:33;13.40;;;11.83;;
17937;SDS011;16051;53.024;8.630;2022-09-30T09:42:03;12.87;;;11.57;;
17937;SDS011;16051;53.024;8.630;2022-09-30T09:50:48;11.77;;;9.80;;
17937;SDS011;16051;53.024;8.630;2022-09-30T09:55:00;9.87;;;8.83;;
17937;SDS011;16051;53.024;8.630;2022-09-30T09:59:04;11.10;;;8.63;;
17937;SDS011;16051;53.024;8.630;2022-09-30T10:03:13;12.40;;;9.20;;
17937;SDS011;16051;53.024;8.630;2022-09-30T10:07:22;8.50;;;7.70;;
17937;SDS011;16051;53.024;8.630;2022-09-30T10:11:37;14.33;;;8.20;;
17937;SDS011;16051;53.024;8.630;2022-09-30T10:15:40;9.60;;;7.87;;
17937;SDS011;16051;53.024;8.630;2022-09-30T10:19:44;9.33;;;6.73;;
17937;SDS011;16051;53.024;8.630;2022-09-30T10:23:53;8.57;;;7.07;;
17937;SDS011;16051;53.024;8.630;2022-09-30T10:27:57;7.03;;;6.33;;
17937;SDS011;16051;53.024;8.630;2022-09-30T10:32:03;8.27;;;6.87;;
17937;SDS011;16051;53.024;8.630;2022-09-30T10:36:10;7.83;;;7.00;;
17937;SDS011;16051;53.024;8.630;2022-09-30T10:40:17;14.07;;;8.70;;
17937;SDS011;16051;53.024;8.630;2022-09-30T10:44:26;13.37;;;8.20;;
17937;SDS011;16051;53.024;8.630;2022-09-30T10:48:30;8.67;;;6.90;;
17937;SDS011;16051;53.024;8.630;2022-09-30T10:52:38;6.37;;;5.70;;
17937;SDS011;16051;53.024;8.630;2022-09-30T10:56:51;8.37;;;7.40;;
17937;SDS011;16051;53.024;8.630;2022-09-30T11:00:55;8.37;;;7.57;;
17937;SDS011;16051;53.024;8.630;2022-09-30T11:05:09;5.90;;;5.30;;
17937;SDS011;16051;53.024;8.630;2022-09-30T11:09:19;7.00;;;6.40;;
17937;SDS011;16051;53.024;8.630;2022-09-30T11:13:34;8.83;;;7.40;;
17937;SDS011;16051;53.024;8.630;2022-09-30T11:17:46;6.97;;;6.33;;
17937;SDS011;16051;53.024;8.630;2022-09-30T11:21:57;9.00;;;6.30;;
17937;SDS011;16051;53.024;8.630;2022-09-30T11:26:24;4.40;;;3.83;;
17937;SDS011;16051;53.024;8.630;2022-09-30T11:30:41;3.73;;;3.43;;
17937;SDS011;16051;53.024;8.630;2022-09-30T11:35:02;3.50;;;3.20;;
17937;SDS011;16051;53.024;8.630;2022-09-30T11:39:31;2.90;;;2.60;;
17937;SDS011;16051;53.024;8.630;2022-09-30T11:44:02;3.30;;;3.00;;
17937;SDS011;16051;53.024;8.630;2022-09-30T11:48:27;3.60;;;3.30;;
17937;SDS011;16051;53.024;8.630;2022-09-30T11:53:11;3.90;;;3.30;;
17937;SDS011;16051;53.024;8.630;2022-09-30T11:57:29;4.53;;;3.67;;
17937;SDS011;16051;53.024;8.630;2022-09-30T12:01:56;6.17;;;4.40;;
17937;SDS011;16051;53.024;8.630;2022-09-30T12:06:21;5.30;;;4.37;;
17937;SDS011;16051;53.024;8.630;2022-09-30T12:10:39;6.23;;;5.40;;
17937;SDS011;16051;53.024;8.630;2022-09-30T12:14:53;7.13;;;5.07;;
17937;SDS011;16051;53.024;8.630;2022-09-30T12:19:01;6.20;;;5.60;;
17937;SDS011;16051;53.024;8.630;2022-09-30T12:27:31;6.93;;;6.23;;
17937;SDS011;16051;53.024;8.630;2022-09-30T12:31:50;7.30;;;6.40;;
17937;SDS011;16051;53.024;8.630;2022-09-30T12:40:56;7.13;;;5.13;;
17937;SDS011;16051;53.024;8.630;2022-09-30T12:45:30;6.23;;;5.60;;
17937;SDS011;16051;53.024;8.630;2022-09-30T12:49:46;6.07;;;5.50;;
17937;SDS011;16051;53.024;8.630;2022-09-30T12:53:50;7.03;;;5.53;;
17937;SDS011;16051;53.024;8.630;2022-09-30T12:58:04;6.80;;;5.20;;
17937;SDS011;16051;53.024;8.630;2022-09-30T13:02:32;6.57;;;5.40;;
17937;SDS011;16051;53.024;8.630;2022-09-30T13:15:43;7.20;;;6.50;;
17937;SDS011;16051;53.024;8.630;2022-09-30T13:19:48;7.97;;;6.03;;
17937;SDS011;16051;53.024;8.630;2022-09-30T13:23:52;6.77;;;5.93;;
17937;SDS011;16051;53.024;8.630;2022-09-30T13:28:25;6.77;;;5.53;;
17937;SDS011;16051;53.024;8.630;2022-09-30T13:32:33;5.80;;;5.20;;
17937;SDS011;16051;53.024;8.630;2022-09-30T13:36:38;6.67;;;5.97;;
17937;SDS011;16051;53.024;8.630;2022-09-30T13:40:57;5.47;;;4.90;;
17937;SDS011;16051;53.024;8.630;2022-09-30T13:45:10;7.27;;;5.80;;
17937;SDS011;16051;53.024;8.630;2022-09-30T13:49:22;5.47;;;4.80;;
17937;SDS011;16051;53.024;8.630;2022-09-30T13:53:40;6.10;;;4.90;;
17937;SDS011;16051;53.024;8.630;2022-09-30T13:57:50;8.00;;;4.70;;
17937;SDS011;16051;53.024;8.630;2022-09-30T14:02:21;5.13;;;4.63;;
17937;SDS011;16051;53.024;8.630;2022-09-30T14:07:07;6.30;;;4.93;;
17937;SDS011;16051;53.024;8.630;2022-09-30T14:11:47;5.40;;;4.40;;
17937;SDS011;16051;53.024;8.630;2022-09-30T14:16:10;6.37;;;5.27;;
17937;SDS011;16051;53.024;8.630;2022-09-30T14:20:50;4.40;;;4.00;;
17937;SDS011;16051;53.024;8.630;2022-09-30T14:25:14;4.90;;;4.40;;
17937;SDS011;16051;53.024;8.630;2022-09-30T14:29:21;5.07;;;4.23;;
17937;SDS011;16051;53.024;8.630;2022-09-30T14:33:54;6.50;;;4.23;;
17937;SDS011;16051;53.024;8.630;2022-09-30T14:37:57;4.50;;;4.10;;
17937;SDS011;16051;53.024;8.630;2022-09-30T14:42:05;5.10;;;4.40;;
17937;SDS011;16051;53.024;8.630;2022-09-30T14:46:27;5.07;;;4.57;;
17937;SDS011;16051;53.024;8.630;2022-09-30T14:50:34;4.37;;;3.97;;
17937;SDS011;16051;53.024;8.630;2022-09-30T14:54:45;5.17;;;4.67;;
17937;SDS011;16051;53.024;8.630;2022-09-30T14:58:49;6.00;;;4.60;;
17937;SDS011;16051;53.024;8.630;2022-09-30T15:02:52;4.87;;;4.47;;
17937;SDS011;16051;53.024;8.630;2022-09-30T15:07:02;4.00;;;3.27;;
17937;SDS011;16051;53.024;8.630;2022-09-30T15:11:09;7.07;;;3.93;;
17937;SDS011;16051;53.024;8.630;2022-09-30T15:15:37;4.63;;;3.93;;
17937;SDS011;16051;53.024;8.630;2022-09-30T15:19:41;3.97;;;3.57;;
17937;SDS011;16051;53.024;8.630;2022-09-30T15:23:46;3.47;;;3.17;;
17937;SDS011;16051;53.024;8.630;2022-09-30T15:27:51;5.40;;;4.00;;
17937;SDS011;16051;53.024;8.630;2022-09-30T15:31:57;4.83;;;4.33;;
17937;SDS011;16051;53.024;8.630;2022-09-30T15:36:03;3.63;;;3.33;;
17937;SDS011;16051;53.024;8.630;2022-09-30T15:40:13;4.57;;;3.70;;
17937;SDS011;16051;53.024;8.630;2022-09-30T15:44:35;7.00;;;4.13;;
17937;SDS011;16051;53.024;8.630;2022-09-30T15:48:42;5.00;;;4.33;;
17937;SDS011;16051;53.024;8.630;2022-09-30T15:52:44;5.00;;;4.50;;
17937;SDS011;16051;53.024;8.630;2022-09-30T15:56:47;4.37;;;3.97;;
17937;SDS011;16051;53.024;8.630;2022-09-30T16:00:49;5.20;;;4.23;;
17937;SDS011;16051;53.024;8.630;2022-09-30T16:04:53;4.80;;;4.40;;
17937;SDS011;16051;53.024;8.630;2022-09-30T16:09:01;4.67;;;3.87;;
17937;SDS011;16051;53.024;8.630;2022-09-30T16:13:07;4.07;;;3.50;;
17937;SDS011;16051;53.024;8.630;2022-09-30T16:17:16;6.30;;;4.27;;
17937;SDS011;16051;53.024;8.630;2022-09-30T16:21:28;4.77;;;4.30;;
17937;SDS011;16051;53.024;8.630;2022-09-30T16:25:43;5.30;;;4.80;;
17937;SDS011;16051;53.024;8.630;2022-09-30T16:29:45;5.43;;;4.90;;
17937;SDS011;16051;53.024;8.630;2022-09-30T16:33:47;6.33;;;5.10;;
17937;SDS011;16051;53.024;8.630;2022-09-30T16:42:19;5.60;;;4.60;;
17937;SDS011;16051;53.024;8.630;2022-09-30T16:46:21;5.00;;;4.60;;
17937;SDS011;16051;53.024;8.630;2022-09-30T16:50:30;9.40;;;7.00;;
17937;SDS011;16051;53.024;8.630;2022-09-30T16:54:48;8.60;;;7.27;;
17937;SDS011;16051;53.024;8.630;2022-09-30T16:58:50;8.13;;;6.30;;
17937;SDS011;16051;53.024;8.630;2022-09-30T17:02:52;6.97;;;6.23;;
17937;SDS011;16051;53.024;8.630;2022-09-30T17:06:55;8.40;;;6.63;;
17937;SDS011;16051;53.024;8.630;2022-09-30T17:10:59;7.63;;;6.70;;
17937;SDS011;16051;53.024;8.630;2022-09-30T17:15:01;7.67;;;6.23;;
17937;SDS011;16051;53.024;8.630;2022-09-30T17:19:04;6.97;;;5.53;;
17937;SDS011;16051;53.024;8.630;2022-09-30T17:27:46;4.80;;;3.97;;
17937;SDS011;16051;53.024;8.630;2022-09-30T17:31:49;5.13;;;3.97;;
17937;SDS011;16051;53.024;8.630;2022-09-30T17:40:02;5.07;;;4.47;;
17937;SDS011;16051;53.024;8.630;2022-09-30T17:44:27;5.60;;;5.00;;
17937;SDS011;16051;53.024;8.630;2022-09-30T17:48:30;7.60;;;5.80;;
17937;SDS011;16051;53.024;8.630;2022-09-30T17:52:33;5.33;;;4.83;;
17937;SDS011;16051;53.024;8.630;2022-09-30T17:56:36;5.77;;;5.17;;
17937;SDS011;16051;53.024;8.630;2022-09-30T18:00:42;5.30;;;4.80;;
17937;SDS011;16051;53.024;8.630;2022-09-30T18:04:45;4.73;;;4.33;;
17937;SDS011;16051;53.024;8.630;2022-09-30T18:08:48;6.17;;;5.40;;
17937;SDS011;16051;53.024;8.630;2022-09-30T18:12:54;4.97;;;4.57;;
17937;SDS011;16051;53.024;8.630;2022-09-30T18:17:00;5.10;;;4.60;;
17937;SDS011;16051;53.024;8.630;2022-09-30T18:21:03;5.87;;;5.27;;
17937;SDS011;16051;53.024;8.630;2022-09-30T18:25:05;5.20;;;4.70;;
17937;SDS011;16051;53.024;8.630;2022-09-30T18:29:38;6.20;;;4.87;;
17937;SDS011;16051;53.024;8.630;2022-09-30T18:33:44;5.40;;;4.90;;
17937;SDS011;16051;53.024;8.630;2022-09-30T18:37:51;6.07;;;5.57;;
17937;SDS011;16051;53.024;8.630;2022-09-30T18:41:53;5.17;;;4.77;;
17937;SDS011;16051;53.024;8.630;2022-09-30T18:54:43;5.70;;;5.10;;
17937;SDS011;16051;53.024;8.630;2022-09-30T18:58:47;5.47;;;4.43;;
17937;SDS011;16051;53.024;8.630;2022-09-30T19:02:50;7.17;;;4.90;;
17937;SDS011;16051;53.024;8.630;2022-09-30T19:06:54;5.40;;;4.90;;
17937;SDS011;16051;53.024;8.630;2022-09-30T19:10:56;5.70;;;5.10;;
17937;SDS011;16051;53.024;8.630;2022-09-30T19:14:58;5.73;;;5.20;;
17937;SDS011;16051;53.024;8.630;2022-09-30T19:19:00;7.07;;;5.80;;
17937;SDS011;16051;53.024;8.630;2022-09-30T19:23:07;5.87;;;5.37;;
17937;SDS011;16051;53.024;8.630;2022-09-30T19:27:09;7.90;;;5.80;;
17937;SDS011;16051;53.024;8.630;2022-09-30T19:31:13;6.97;;;5.47;;
17937;SDS011;16051;53.024;8.630;2022-09-30T19:35:18;6.17;;;5.57;;
17937;SDS011;16051;53.024;8.630;2022-09-30T19:39:24;7.83;;;6.53;;
17937;SDS011;16051;53.024;8.630;2022-09-30T19:43:26;7.93;;;5.80;;
17937;SDS011;16051;53.024;8.630;2022-09-30T19:47:29;5.97;;;5.37;;
17937;SDS011;16051;53.024;8.630;2022-09-30T19:51:31;6.13;;;5.53;;
17937;SDS011;16051;53.024;8.630;2022-09-30T19:55:35;7.00;;;5.70;;
17937;SDS011;16051;53.024;8.630;2022-09-30T20:04:09;8.23;;;6.20;;
17937;SDS011;16051;53.024;8.630;2022-09-30T20:08:12;8.63;;;6.23;;
17937;SDS011;16051;53.024;8.630;2022-09-30T20:12:15;8.67;;;6.40;;
17937;SDS011;16051;53.024;8.630;2022-09-30T20:16:17;8.03;;;6.10;;
17937;SDS011;16051;53.024;8.630;2022-09-30T20:20:19;7.87;;;5.83;;
17937;SDS011;16051;53.024;8.630;2022-09-30T20:24:41;6.70;;;5.33;;
17937;SDS011;16051;53.024;8.630;2022-09-30T20:28:55;9.40;;;6.87;;
17937;SDS011;16051;53.024;8.630;2022-09-30T20:32:57;7.03;;;6.00;;
17937;SDS011;16051;53.024;8.630;2022-09-30T20:37:01;7.00;;;5.67;;
17937;SDS011;16051;53.024;8.630;2022-09-30T20:41:03;6.23;;;5.20;;
17937;SDS011;16051;53.024;8.630;2022-09-30T20:45:18;7.40;;;6.40;;
17937;SDS011;16051;53.024;8.630;2022-09-30T20:49:20;9.00;;;6.23;;
17937;SDS011;16051;53.024;8.630;2022-09-30T20:53:23;6.27;;;5.67;;
17937;SDS011;16051;53.024;8.630;2022-09-30T20:57:25;6.00;;;5.47;;
17937;SDS011;16051;53.024;8.630;2022-09-30T21:01:30;5.60;;;5.03;;
17937;SDS011;16051;53.024;8.630;2022-09-30T21:05:32;7.83;;;5.20;;
17937;SDS011;16051;53.024;8.630;2022-09-30T21:09:34;6.03;;;5.13;;
17937;SDS011;16051;53.024;8.630;2022-09-30T21:13:40;5.97;;;5.37;;
17937;SDS011;16051;53.024;8.630;2022-09-30T21:17:44;5.30;;;4.80;;
17937;SDS011;16051;53.024;8.630;2022-09-30T21:21:47;6.17;;;4.53;;
17937;SDS011;16051;53.024;8.630;2022-09-30T21:25:54;5.93;;;4.77;;
17937;SDS011;16051;53.024;8.630;2022-09-30T21:30:01;5.63;;;4.77;;
17937;SDS011;16051;53.024;8.630;2022-09-30T21:34:08;4.63;;;4.23;;
17937;SDS011;16051;53.024;8.630;2022-09-30T21:38:13;4.70;;;4.20;;
17937;SDS011;16051;53.024;8.630;2022-09-30T21:42:17;4.73;;;3.90;;
17937;SDS011;16051;53.024;8.630;2022-09-30T21:46:19;5.13;;;4.63;;
17937;SDS011;16051;53.024;8.630;2022-09-30T21:50:32;4.30;;;3.90;;
17937;SDS011;16051;53.024;8.630;2022-09-30T21:54:35;4.97;;;4.47;;
17937;SDS011;16051;53.024;8.630;2022-09-30T21:58:38;4.63;;;3.80;;
17937;SDS011;16051;53.024;8.630;2022-09-30T22:02:40;4.93;;;4.40;;
17937;SDS011;16051;53.024;8.630;2022-09-30T22:06:44;4.53;;;3.53;;
17937;SDS011;16051;53.024;8.630;2022-09-30T22:10:54;6.13;;;3.90;;
17937;SDS011;16051;53.024;8.630;2022-09-30T22:14:57;4.97;;;3.70;;
17937;SDS011;16051;53.024;8.630;2022-09-30T22:18:59;4.90;;;3.53;;
17937;SDS011;16051;53.024;8.630;2022-09-30T22:23:06;4.67;;;3.30;;
17937;SDS011;16051;53.024;8.630;2022-09-30T22:27:08;3.20;;;2.90;;
17937;SDS011;16051;53.024;8.630;2022-09-30T22:31:12;3.80;;;2.63;;
17937;SDS011;16051;53.024;8.630;2022-09-30T22:35:17;3.27;;;2.93;;
17937;SDS011;16051;53.024;8.630;2022-09-30T22:39:34;4.30;;;2.90;;
17937;SDS011;16051;53.024;8.630;2022-09-30T22:43:38;4.00;;;2.63;;
17937;SDS011;16051;53.024;8.630;2022-09-30T22:47:40;2.93;;;2.63;;
17937;SDS011;16051;53.024;8.630;2022-09-30T22:51:42;2.40;;;2.20;;
17937;SDS011;16051;53.024;8.630;2022-09-30T22:55:48;2.70;;;2.43;;
17937;SDS011;16051;53.024;8.630;2022-09-30T22:59:50;2.70;;;2.30;;
17937;SDS011;16051;53.024;8.630;2022-09-30T23:03:53;4.90;;;2.67;;
17937;SDS011;16051;53.024;8.630;2022-09-30T23:07:55;3.27;;;2.50;;
17937;SDS011;16051;53.024;8.630;2022-09-30T23:12:12;3.20;;;2.37;;
17937;SDS011;16051;53.024;8.630;2022-09-30T23:16:14;3.43;;;2.50;;
17937;SDS011;16051;53.024;8.630;2022-09-30T23:20:17;3.70;;;2.50;;
17937;SDS011;16051;53.024;8.630;2022-09-30T23:24:20;4.97;;;2.50;;
17937;SDS011;16051;53.024;8.630;2022-09-30T23:28:23;2.63;;;2.30;;
17937;SDS011;16051;53.024;8.630;2022-09-30T23:32:26;3.10;;;2.43;;
17937;SDS011;16051;53.024;8.630;2022-09-30T23:36:28;2.40;;;2.20;;
17937;SDS011;16051;53.024;8.630;2022-09-30T23:40:34;2.70;;;2.47;;
17937;SDS011;16051;53.024;8.630;2022-09-30T23:44:45;2.80;;;2.30;;
17937;SDS011;16051;53.024;8.630;2022-09-30T23:48:47;3.33;;;2.33;;
17937;SDS011;16051;53.024;8.630;2022-09-30T23:52:49;3.13;;;2.43;;
